Time;durP1;ratioP1;P1;durP2;ratioP2;P2;SDS_P1;SDS_P2;PMS_P1;PMS_P2;Temp;Humidity;BMP_temperature;BMP_pressure;BME280_temperature;BME280_humidity;BME280_pressure;Samples;Min_cycle;Max_cycle;Signal;HPM_P1;HPM_P2
2021/11/13 00:01:18;;;;;;;10.83;9.70;;;;;;;1.98;100.00;98057.97;4919290;29;20362;-74
2021/11/13 00:03:46;;;;;;;10.77;9.47;;;;;;;1.94;100.00;98063.53;4928816;29;20218;-72
2021/11/13 00:06:14;;;;;;;10.47;9.47;;;;;;;1.82;100.00;98054.78;4915834;28;20207;-74
2021/11/13 00:08:44;;;;;;;10.57;9.47;;;;;;;1.96;100.00;98057.25;4926395;28;20625;-73
2021/11/13 00:11:12;;;;;;;9.63;8.67;;;;;;;1.72;100.00;98052.81;4927294;29;20438;-73
2021/11/13 00:13:40;;;;;;;9.73;8.73;;;;;;;1.82;100.00;98052.16;4892035;29;20577;-74
2021/11/13 00:16:09;;;;;;;10.43;9.43;;;;;;;1.81;100.00;98045.25;4928284;29;20536;-73
2021/11/13 00:18:37;;;;;;;10.57;9.50;;;;;;;1.79;100.00;98045.34;4928791;29;20217;-72
2021/11/13 00:21:05;;;;;;;11.47;9.30;;;;;;;1.71;100.00;98045.91;4918127;29;20349;-75
2021/11/13 00:23:33;;;;;;;10.10;9.20;;;;;;;1.76;100.00;98045.56;4921412;29;20212;-73
2021/11/13 00:26:03;;;;;;;10.63;9.53;;;;;;;1.81;100.00;98059.16;4924368;29;20793;-73
2021/11/13 00:28:31;;;;;;;11.10;10.00;;;;;;;1.66;100.00;98055.00;4931623;29;20595;-74
2021/11/13 00:30:59;;;;;;;10.73;9.63;;;;;;;1.61;100.00;98051.88;4886851;29;20247;-72
2021/11/13 00:33:27;;;;;;;10.43;9.30;;;;;;;1.59;100.00;98054.56;4933304;29;20229;-74
2021/11/13 00:35:55;;;;;;;11.53;10.33;;;;;;;1.57;100.00;98066.91;4922797;28;20200;-73
2021/11/13 00:38:23;;;;;;;10.80;9.70;;;;;;;1.59;100.00;98058.03;4930434;29;20219;-74
2021/11/13 00:40:51;;;;;;;13.17;10.43;;;;;;;1.60;100.00;98061.47;4925720;29;20243;-72
2021/11/13 00:43:21;;;;;;;10.30;9.27;;;;;;;1.59;100.00;98059.81;4932140;29;20348;-73
2021/11/13 00:45:49;;;;;;;11.33;10.13;;;;;;;1.55;100.00;98059.19;4896996;29;20223;-72
2021/11/13 00:48:17;;;;;;;12.13;10.77;;;;;;;1.62;100.00;98056.97;4932587;29;20985;-71
2021/11/13 00:50:45;;;;;;;11.03;9.27;;;;;;;1.52;100.00;98054.19;4929252;29;20723;-72
2021/11/13 00:53:16;;;;;;;10.93;9.73;;;;;;;1.58;100.00;98052.91;4925835;29;20390;-74
2021/11/13 00:55:44;;;;;;;9.80;8.90;;;;;;;1.66;100.00;98060.22;4931179;29;20249;-73
2021/11/13 00:58:12;;;;;;;11.10;9.60;;;;;;;1.59;100.00;98051.97;4923373;29;20321;-75
2021/11/13 01:00:41;;;;;;;10.73;9.53;;;;;;;1.67;100.00;98060.09;4897600;29;20408;-72
2021/11/13 01:03:10;;;;;;;11.00;8.30;;;;;;;1.74;100.00;98057.91;4927005;29;20410;-73
2021/11/13 01:05:38;;;;;;;12.57;9.33;;;;;;;1.63;100.00;98056.03;4929859;29;20219;-74
2021/11/13 01:08:06;;;;;;;9.80;8.90;;;;;;;1.71;100.00;98053.75;4916698;29;20203;-72
2021/11/13 01:10:34;;;;;;;9.37;8.43;;;;;;;1.72;100.00;98058.03;4925127;29;20238;-74
2021/11/13 01:13:02;;;;;;;10.50;8.87;;;;;;;1.63;100.00;98063.88;4925312;29;20223;-75
2021/11/13 01:15:30;;;;;;;10.07;8.93;;;;;;;1.72;100.00;98055.41;4896374;29;20614;-73
2021/11/13 01:18:00;;;;;;;11.67;8.73;;;;;;;1.66;100.00;98060.22;4932566;29;20210;-72
2021/11/13 01:20:29;;;;;;;9.50;8.60;;;;;;;1.73;100.00;98064.09;4931908;29;20239;-73
2021/11/13 01:22:58;;;;;;;10.07;9.13;;;;;;;1.67;100.00;98069.72;4918608;29;20225;-72
2021/11/13 01:25:26;;;;;;;11.13;8.60;;;;;;;1.61;100.00;98068.38;4929971;29;20414;-75
2021/11/13 01:27:54;;;;;;;10.20;8.63;;;;;;;1.65;100.00;98064.59;4932563;29;20215;-73
2021/11/13 01:30:23;;;;;;;11.40;9.07;;;;;;;1.66;100.00;98068.88;4892081;29;20227;-74
2021/11/13 01:32:51;;;;;;;10.07;9.03;;;;;;;1.63;100.00;98066.47;4929420;29;20657;-73
2021/11/13 01:35:22;;;;;;;9.20;8.33;;;;;;;1.68;100.00;98061.78;4893990;28;20572;-74
2021/11/13 01:37:50;;;;;;;10.17;9.17;;;;;;;1.69;100.00;98058.22;4933638;29;20655;-74
2021/11/13 01:40:20;;;;;;;10.00;9.00;;;;;;;1.61;100.00;98052.69;4927508;29;20497;-74
2021/11/13 01:42:49;;;;;;;10.40;9.40;;;;;;;1.67;100.00;98051.44;4933590;29;20211;-74
2021/11/13 01:45:18;;;;;;;10.43;8.43;;;;;;;1.64;100.00;98041.22;4922317;29;20218;-75
2021/11/13 01:47:48;;;;;;;12.53;9.40;;;;;;;1.63;100.00;98045.59;4935855;28;20308;-75
2021/11/13 01:50:18;;;;;;;10.07;8.47;;;;;;;1.61;100.00;98041.44;4887718;29;20246;-75
2021/11/13 01:52:48;;;;;;;10.40;9.37;;;;;;;1.65;100.00;98037.66;4930558;29;20234;-75
2021/11/13 01:55:16;;;;;;;10.93;8.50;;;;;;;1.69;100.00;98045.16;4917212;29;20620;-74
2021/11/13 01:57:45;;;;;;;9.83;8.83;;;;;;;1.72;100.00;98052.81;4935535;28;20211;-71
2021/11/13 02:00:16;;;;;;;11.07;9.20;;;;;;;1.61;100.00;98039.63;4930222;29;20370;-74
2021/11/13 02:02:45;;;;;;;11.13;8.57;;;;;;;1.61;100.00;98037.03;4934831;29;20207;-75
2021/11/13 02:05:13;;;;;;;9.10;8.20;;;;;;;1.62;100.00;98036.06;4898308;29;20449;-72
2021/11/13 02:07:41;;;;;;;10.83;9.47;;;;;;;1.69;100.00;98028.66;4932288;29;20214;-73
2021/11/13 02:10:12;;;;;;;10.07;9.10;;;;;;;1.66;100.00;98032.31;4916018;29;20277;-72
2021/11/13 02:12:40;;;;;;;10.90;9.17;;;;;;;1.63;100.00;98040.34;4930521;29;20239;-73
2021/11/13 02:15:09;;;;;;;10.33;9.23;;;;;;;1.60;100.00;98040.56;4928346;29;20215;-73
2021/11/13 02:17:37;;;;;;;9.37;8.00;;;;;;;1.57;100.00;98044.25;4926864;29;20661;-74
2021/11/13 02:20:24;;;;;;;10.43;8.47;;;;;;;1.57;100.00;98046.88;4932050;29;20214;-73
2021/11/13 02:22:53;;;;;;;9.77;8.60;;;;;;;1.62;100.00;98043.09;4900207;29;20234;-72
2021/11/13 02:25:22;;;;;;;9.80;8.80;;;;;;;1.67;100.00;98041.81;4917221;29;20207;-73
2021/11/13 02:27:50;;;;;;;8.67;7.43;;;;;;;1.70;100.00;98046.81;4933075;29;20219;-74
2021/11/13 02:30:19;;;;;;;10.27;9.00;;;;;;;1.76;100.00;98050.81;4930238;29;20736;-74
2021/11/13 02:32:48;;;;;;;10.77;8.43;;;;;;;1.63;100.00;98050.81;4927063;29;20226;-75
2021/11/13 02:35:17;;;;;;;10.37;8.13;;;;;;;1.70;100.00;98038.97;4932987;29;20218;-73
2021/11/13 02:37:47;;;;;;;9.57;8.47;;;;;;;1.71;100.00;98051.13;4894162;29;20238;-74
2021/11/13 02:40:17;;;;;;;9.73;8.13;;;;;;;1.64;100.00;98046.44;4912415;29;20234;-73
2021/11/13 02:42:46;;;;;;;7.93;7.13;;;;;;;1.67;100.00;98047.03;4929582;29;20221;-73
2021/11/13 02:45:16;;;;;;;8.43;7.63;;;;;;;1.66;100.00;98049.78;4926630;29;20211;-74
2021/11/13 02:47:47;;;;;;;9.10;7.67;;;;;;;1.69;100.00;98050.38;4928123;29;20496;-73
2021/11/13 02:50:18;;;;;;;9.53;8.13;;;;;;;1.81;100.00;98058.34;4927212;29;20222;-75
2021/11/13 02:52:50;;;;;;;9.67;8.10;;;;;;;1.70;100.00;98057.28;4889215;29;20507;-74
2021/11/13 02:55:18;;;;;;;8.80;7.50;;;;;;;1.67;100.00;98051.44;4910560;29;20691;-72
2021/11/13 02:57:46;;;;;;;8.67;7.70;;;;;;;1.62;100.00;98053.53;4931510;29;20215;-73
2021/11/13 03:00:17;;;;;;;9.70;8.37;;;;;;;1.63;100.00;98053.41;4933487;28;20231;-75
2021/11/13 03:02:45;;;;;;;8.67;7.23;;;;;;;1.80;100.00;98059.28;4930322;29;20215;-74
2021/11/13 03:05:23;;;;;;;8.80;7.90;;;;;;;1.71;100.00;98058.97;4929570;29;20595;-75
2021/11/13 03:07:54;;;;;;;8.70;7.83;;;;;;;1.80;100.00;98059.28;4928633;29;20215;-75
2021/11/13 03:10:23;;;;;;;9.53;8.27;;;;;;;1.79;100.00;98061.03;4877872;29;20246;-73
2021/11/13 03:12:51;;;;;;;7.90;7.10;;;;;;;1.78;100.00;98058.53;4929141;29;20388;-75
2021/11/13 03:15:21;;;;;;;8.27;7.37;;;;;;;1.77;100.00;98054.25;4926401;29;20267;-73
2021/11/13 03:17:50;;;;;;;9.53;8.47;;;;;;;1.82;100.00;98057.38;4932735;28;20233;-75
2021/11/13 03:20:19;;;;;;;8.57;7.33;;;;;;;1.73;100.00;98051.00;4931262;29;20231;-73
2021/11/13 03:22:48;;;;;;;9.43;8.50;;;;;;;1.73;100.00;98046.63;4929047;29;20219;-75
2021/11/13 03:25:19;;;;;;;8.80;7.60;;;;;;;1.74;100.00;98060.53;4897332;29;20580;-72
2021/11/13 03:27:49;;;;;;;8.67;7.87;;;;;;;1.72;100.00;98051.97;4926481;29;20456;-74
2021/11/13 03:30:18;;;;;;;7.80;7.07;;;;;;;1.73;100.00;98059.72;4928967;29;20573;-73
2021/11/13 03:32:46;;;;;;;9.17;8.23;;;;;;;1.81;100.00;98053.91;4927075;29;20436;-74
2021/11/13 03:35:16;;;;;;;8.10;7.30;;;;;;;1.80;100.00;98054.03;4931376;29;20203;-74
2021/11/13 03:37:44;;;;;;;9.50;7.77;;;;;;;1.65;100.00;98048.94;4922151;29;20258;-73
2021/11/13 03:40:13;;;;;;;7.77;6.80;;;;;;;1.62;100.00;98046.53;4933301;29;20237;-74
2021/11/13 03:42:42;;;;;;;8.63;7.33;;;;;;;1.63;100.00;98050.81;4871323;28;20432;-72
2021/11/13 03:45:10;;;;;;;7.60;6.83;;;;;;;1.63;100.00;98053.41;4921027;29;20446;-73
2021/11/13 03:47:38;;;;;;;8.33;7.13;;;;;;;1.64;100.00;98051.66;4911976;29;20225;-73
2021/11/13 03:50:07;;;;;;;8.87;7.53;;;;;;;1.64;100.00;98049.88;4921320;29;20216;-71
2021/11/13 03:52:35;;;;;;;8.93;7.50;;;;;;;1.65;100.00;98048.94;4930754;29;20223;-74
2021/11/13 03:55:04;;;;;;;7.70;6.83;;;;;;;1.66;100.00;98055.00;4927554;29;20460;-74
2021/11/13 03:57:32;;;;;;;8.47;7.33;;;;;;;1.66;100.00;98050.59;4896710;28;20313;-73
2021/11/13 04:00:02;;;;;;;7.70;7.00;;;;;;;1.82;100.00;98050.38;4927725;29;20648;-73
2021/11/13 04:02:30;;;;;;;9.80;7.97;;;;;;;1.80;100.00;98067.13;4914984;29;20381;-74
2021/11/13 04:04:58;;;;;;;8.63;7.73;;;;;;;1.79;100.00;98055.81;4921989;29;20240;-72
2021/11/13 04:07:26;;;;;;;8.40;7.27;;;;;;;1.78;100.00;98048.09;4928814;29;20666;-75
2021/11/13 04:09:54;;;;;;;8.23;7.50;;;;;;;1.86;100.00;98046.59;4922037;29;20211;-72
2021/11/13 04:12:22;;;;;;;7.70;7.10;;;;;;;1.63;100.00;98040.34;4897717;29;20226;-74
2021/11/13 04:14:50;;;;;;;8.13;7.37;;;;;;;1.58;100.00;98043.31;4916147;29;20247;-72
2021/11/13 04:17:19;;;;;;;7.77;6.97;;;;;;;1.56;100.00;98046.94;4929319;29;20218;-74
2021/11/13 04:19:47;;;;;;;8.30;7.47;;;;;;;1.56;100.00;98046.94;4904793;29;20219;-71
2021/11/13 04:22:15;;;;;;;7.70;6.90;;;;;;;1.58;100.00;98038.09;4923877;29;20426;-73
2021/11/13 04:24:43;;;;;;;7.87;7.03;;;;;;;1.70;100.00;98046.81;4929955;29;20222;-72
2021/11/13 04:27:12;;;;;;;8.03;7.27;;;;;;;1.53;100.00;98039.34;4890301;29;20232;-73
2021/11/13 04:29:40;;;;;;;7.17;6.53;;;;;;;1.62;100.00;98043.09;4932066;29;20587;-73
2021/11/13 04:32:08;;;;;;;8.40;7.03;;;;;;;1.57;100.00;98036.41;4929750;29;20733;-74
2021/11/13 04:34:46;;;;;;;7.90;7.20;;;;;;;1.56;100.00;98033.91;4920655;29;20237;-73
2021/11/13 04:37:16;;;;;;;8.10;7.27;;;;;;;1.52;100.00;98024.59;4923032;29;20233;-74
2021/11/13 04:39:45;;;;;;;7.70;7.00;;;;;;;1.63;100.00;98026.47;4931306;29;20207;-73
2021/11/13 04:42:13;;;;;;;8.10;7.30;;;;;;;1.48;100.00;98021.34;4928300;29;20363;-75
2021/11/13 04:44:41;;;;;;;8.10;7.30;;;;;;;1.45;100.00;98013.72;4889009;29;20350;-72
2021/11/13 04:47:10;;;;;;;9.00;7.30;;;;;;;1.43;100.00;98013.84;4909814;29;20207;-72
2021/11/13 04:49:40;;;;;;;8.13;7.43;;;;;;;1.67;100.00;98020.91;4919360;29;20873;-72
2021/11/13 04:52:09;;;;;;;8.17;7.03;;;;;;;1.52;100.00;98022.84;4927186;29;20239;-71
2021/11/13 04:54:37;;;;;;;8.13;7.33;;;;;;;1.70;100.00;98018.09;4918286;29;20733;-72
2021/11/13 04:57:06;;;;;;;8.30;7.53;;;;;;;1.67;100.00;98010.47;4927607;29;20692;-70
2021/11/13 04:59:34;;;;;;;7.83;6.80;;;;;;;1.57;100.00;98004.22;4827033;28;20242;-74
2021/11/13 05:02:02;;;;;;;7.37;6.67;;;;;;;1.62;100.00;97994.28;4927382;29;20236;-73
2021/11/13 05:04:30;;;;;;;7.83;7.13;;;;;;;1.62;100.00;97983.84;4912465;29;23067;-72
2021/11/13 05:07:00;;;;;;;7.40;6.73;;;;;;;1.52;100.00;97980.19;4911064;28;20227;-74
2021/11/13 05:09:28;;;;;;;8.33;7.53;;;;;;;1.49;100.00;97976.00;4926078;29;20207;-71
2021/11/13 05:11:56;;;;;;;8.50;7.70;;;;;;;1.53;100.00;97976.66;4921365;29;20246;-70
2021/11/13 05:14:24;;;;;;;7.23;6.63;;;;;;;1.45;100.00;97979.78;4884040;29;20235;-71
2021/11/13 05:16:52;;;;;;;7.50;6.80;;;;;;;1.43;100.00;97977.28;4911358;29;20277;-70
2021/11/13 05:19:20;;;;;;;7.67;6.97;;;;;;;1.35;100.00;97979.59;4920665;29;20214;-71
2021/11/13 05:21:47;;;;;;;7.17;6.47;;;;;;;1.30;100.00;97982.53;4902648;29;20263;-74
2021/11/13 05:24:17;;;;;;;6.87;6.30;;;;;;;1.43;100.00;97976.44;4919445;29;20296;-72
2021/11/13 05:26:45;;;;;;;9.00;7.00;;;;;;;1.42;100.00;97972.16;4925901;29;20230;-73
2021/11/13 05:29:13;;;;;;;7.23;6.53;;;;;;;1.26;100.00;97978.47;4921800;28;20241;-75
2021/11/13 05:31:41;;;;;;;7.57;6.87;;;;;;;1.48;100.00;97978.75;4936400;28;20588;-73
2021/11/13 05:34:09;;;;;;;6.77;6.03;;;;;;;1.45;100.00;97979.78;4959377;28;20516;-74
2021/11/13 05:36:37;;;;;;;6.83;6.23;;;;;;;1.44;100.00;97984.19;4942252;28;20834;-72
2021/11/13 05:39:05;;;;;;;7.20;6.50;;;;;;;1.52;100.00;97981.06;4959276;28;20214;-74
2021/11/13 05:41:35;;;;;;;7.67;6.97;;;;;;;1.38;100.00;97986.38;4957819;28;20253;-75
2021/11/13 05:44:03;;;;;;;6.40;5.90;;;;;;;1.26;100.00;97988.06;4958345;28;20231;-77
2021/11/13 05:46:31;;;;;;;6.00;5.47;;;;;;;1.27;100.00;97990.56;4941414;28;21121;-76
2021/11/13 05:48:59;;;;;;;5.60;5.20;;;;;;;1.34;100.00;97992.75;4942450;28;21233;-76
2021/11/13 05:51:27;;;;;;;7.07;6.27;;;;;;;1.25;100.00;97989.00;4961591;28;20256;-75
2021/11/13 05:53:55;;;;;;;5.97;5.47;;;;;;;1.28;100.00;97988.78;4967665;28;20910;-76
2021/11/13 05:56:23;;;;;;;5.77;5.27;;;;;;;1.25;100.00;97994.22;4958978;28;20977;-75
2021/11/13 05:59:00;;;;;;;5.83;5.33;;;;;;;1.28;100.00;97988.78;4954207;28;20209;-76
2021/11/13 06:01:27;;;;;;;6.10;5.50;;;;;;;1.35;100.00;97995.28;4958510;28;20225;-73
2021/11/13 06:03:56;;;;;;;6.03;5.63;;;;;;;1.21;100.00;97998.81;4933315;28;20432;-77
2021/11/13 06:06:24;;;;;;;6.10;5.60;;;;;;;1.20;100.00;98011.97;4959568;28;20224;-75
2021/11/13 06:08:52;;;;;;;5.77;5.33;;;;;;;1.19;100.00;98020.75;4967303;28;20213;-75
2021/11/13 06:11:20;;;;;;;5.87;5.37;;;;;;;1.17;100.00;98025.25;4968546;28;20261;-77
2021/11/13 06:13:47;;;;;;;5.53;5.10;;;;;;;1.14;100.00;98018.47;4942464;28;20478;-76
2021/11/13 06:16:17;;;;;;;6.03;5.47;;;;;;;1.16;100.00;98032.25;4966548;28;20687;-75
2021/11/13 06:18:45;;;;;;;5.70;5.10;;;;;;;1.08;100.00;98024.91;4960860;28;20229;-76
2021/11/13 06:21:14;;;;;;;4.73;4.37;;;;;;;1.10;100.00;98030.03;4924857;28;20497;-75
2021/11/13 06:23:45;;;;;;;5.17;4.77;;;;;;;1.15;100.00;98035.78;4960714;28;20436;-78
2021/11/13 06:26:14;;;;;;;5.43;5.03;;;;;;;1.21;100.00;98035.38;4965105;28;20207;-76
2021/11/13 06:28:42;;;;;;;5.97;5.47;;;;;;;1.18;100.00;98032.97;4960233;28;20345;-75
2021/11/13 06:31:10;;;;;;;5.80;5.30;;;;;;;1.23;100.00;98033.50;4965367;28;20719;-75
2021/11/13 06:33:40;;;;;;;6.57;5.83;;;;;;;1.18;100.00;98043.41;4962702;28;20614;-75
2021/11/13 06:36:08;;;;;;;6.23;5.73;;;;;;;1.13;100.00;98054.16;4933838;28;20542;-74
2021/11/13 06:38:36;;;;;;;5.20;4.80;;;;;;;1.24;100.00;98056.06;4951462;28;20233;-77
2021/11/13 06:41:04;;;;;;;6.03;5.50;;;;;;;1.24;100.00;98060.44;4962249;28;20235;-76
2021/11/13 06:43:32;;;;;;;6.27;5.77;;;;;;;1.26;100.00;98066.38;4954719;28;20538;-76
2021/11/13 06:46:00;;;;;;;5.73;5.33;;;;;;;1.31;100.00;98072.13;4963909;28;20243;-76
2021/11/13 06:48:28;;;;;;;6.30;5.70;;;;;;;1.35;100.00;98072.75;4948364;28;20213;-75
2021/11/13 06:50:57;;;;;;;5.83;5.40;;;;;;;1.45;100.00;98073.81;4965518;28;20587;-78
2021/11/13 06:53:25;;;;;;;5.23;4.83;;;;;;;1.39;100.00;98082.91;4921813;28;20238;-75
2021/11/13 06:55:53;;;;;;;5.80;5.30;;;;;;;1.42;100.00;98089.69;4962817;28;20237;-76
2021/11/13 06:58:21;;;;;;;8.23;7.43;;;;;;;1.67;100.00;98072.34;4959267;28;20211;-74
2021/11/13 07:00:49;;;;;;;12.93;10.20;;;;;;;1.56;100.00;98076.53;4965942;28;20233;-77
2021/11/13 07:03:17;;;;;;;12.00;10.63;;;;;;;1.45;100.00;98073.81;4963082;28;20210;-74
2021/11/13 07:05:45;;;;;;;15.37;11.97;;;;;;;1.47;100.00;98071.91;4957375;28;20410;-76
2021/11/13 07:08:14;;;;;;;6.13;5.53;;;;;;;1.48;100.00;98070.97;4923787;28;20224;-74
2021/11/13 07:10:42;;;;;;;5.63;5.13;;;;;;;1.68;100.00;98066.19;4957762;28;20234;-76
2021/11/13 07:13:10;;;;;;;5.37;4.97;;;;;;;1.60;100.00;98064.09;4966471;28;20931;-74
2021/11/13 07:15:38;;;;;;;5.57;5.17;;;;;;;1.67;100.00;98064.50;4957614;28;20240;-77
2021/11/13 07:18:06;;;;;;;6.00;5.57;;;;;;;1.65;100.00;98064.59;4958531;28;20210;-76
2021/11/13 07:20:34;;;;;;;5.47;5.07;;;;;;;1.54;100.00;98062.75;4956463;28;20440;-77
2021/11/13 07:23:02;;;;;;;6.90;5.83;;;;;;;1.59;100.00;98070.25;4932062;28;20666;-77
2021/11/13 07:25:32;;;;;;;6.83;5.27;;;;;;;1.67;100.00;98067.13;4952351;28;20210;-77
2021/11/13 07:28:03;;;;;;;6.30;5.70;;;;;;;1.74;100.00;98057.91;4966782;28;20202;-76
2021/11/13 07:30:39;;;;;;;4.83;4.47;;;;;;;1.73;100.00;98051.00;4958444;28;20225;-78
2021/11/13 07:33:08;;;;;;;7.70;7.10;;;;;;;1.76;100.00;98053.41;4962521;28;20206;-77
2021/11/13 07:35:36;;;;;;;6.23;5.73;;;;;;;1.77;100.00;98052.47;4961381;28;20330;-78
2021/11/13 07:38:04;;;;;;;6.37;5.97;;;;;;;1.73;100.00;98051.00;4966400;28;20209;-78
2021/11/13 07:40:34;;;;;;;6.60;6.03;;;;;;;1.58;100.00;98042.47;4921234;28;20727;-76
2021/11/13 07:43:02;;;;;;;7.40;6.70;;;;;;;1.63;100.00;98042.16;4970989;28;20205;-75
2021/11/13 07:45:31;;;;;;;5.93;5.43;;;;;;;1.75;100.00;98049.13;4963197;28;20618;-78
2021/11/13 07:47:59;;;;;;;5.80;5.30;;;;;;;1.68;100.00;98038.25;4963467;28;20210;-77
2021/11/13 07:50:27;;;;;;;5.93;5.43;;;;;;;1.71;100.00;98043.31;4960641;28;20237;-74
2021/11/13 07:52:55;;;;;;;5.60;5.10;;;;;;;1.90;100.00;98049.03;4943193;28;20576;-76
2021/11/13 07:55:23;;;;;;;6.37;5.87;;;;;;;2.11;100.00;98059.75;4930500;28;20598;-75
2021/11/13 07:57:52;;;;;;;6.03;5.53;;;;;;;1.96;100.00;98066.88;4928558;28;20219;-77
2021/11/13 08:00:21;;;;;;;5.70;5.30;;;;;;;1.88;100.00;98070.03;4958577;28;20237;-76
2021/11/13 08:02:49;;;;;;;6.27;5.77;;;;;;;2.06;100.00;98062.66;4956508;28;20214;-75
2021/11/13 08:05:18;;;;;;;6.47;5.80;;;;;;;2.17;100.00;98069.75;4949420;28;20943;-76
2021/11/13 08:07:46;;;;;;;6.90;5.30;;;;;;;2.19;100.00;98067.00;4963522;28;20207;-75
2021/11/13 08:10:16;;;;;;;7.90;7.20;;;;;;;2.18;100.00;98066.19;4962595;28;20433;-76
2021/11/13 08:12:45;;;;;;;6.43;5.87;;;;;;;2.24;100.00;98054.44;4919224;28;20221;-74
2021/11/13 08:15:15;;;;;;;8.30;7.60;;;;;;;2.20;100.00;98064.31;4955916;28;20222;-77
2021/11/13 08:17:43;;;;;;;8.13;6.83;;;;;;;2.11;100.00;98055.31;4968749;28;20210;-76
2021/11/13 08:20:12;;;;;;;8.57;7.87;;;;;;;2.09;100.00;98064.25;4957370;28;20533;-73
2021/11/13 08:22:42;;;;;;;5.37;4.97;;;;;;;2.27;100.00;98060.31;4963825;28;20213;-75
2021/11/13 08:25:11;;;;;;;5.63;5.23;;;;;;;2.21;100.00;98065.97;4961434;28;20439;-73
2021/11/13 08:27:40;;;;;;;8.60;7.80;;;;;;;2.28;100.00;98069.81;4919593;28;20695;-75
2021/11/13 08:30:09;;;;;;;7.87;5.57;;;;;;;2.45;100.00;98059.91;4952659;28;20424;-72
2021/11/13 08:32:39;;;;;;;6.20;5.70;;;;;;;2.52;100.00;98052.47;4966889;28;20585;-75
2021/11/13 08:35:08;;;;;;;5.73;5.33;;;;;;;2.51;100.00;98063.88;4967206;28;20359;-72
2021/11/13 08:37:37;;;;;;;6.23;5.63;;;;;;;2.41;100.00;98063.69;4966965;28;20560;-75
2021/11/13 08:40:07;;;;;;;6.77;6.20;;;;;;;2.55;100.00;98047.84;4965226;28;20811;-74
2021/11/13 08:42:35;;;;;;;6.57;6.07;;;;;;;2.62;100.00;98055.25;4945444;28;20598;-73
2021/11/13 08:45:05;;;;;;;6.77;6.00;;;;;;;2.77;100.00;98064.59;4921443;28;20217;-74
2021/11/13 08:47:33;;;;;;;6.20;5.70;;;;;;;2.70;100.00;98052.91;4962919;28;20213;-73
2021/11/13 08:50:04;;;;;;;5.77;5.37;;;;;;;2.70;100.00;98055.53;4962444;28;20240;-72
2021/11/13 08:52:33;;;;;;;5.53;5.13;;;;;;;2.85;100.00;98053.56;4957972;28;20237;-74
2021/11/13 08:55:00;;;;;;;5.60;5.20;;;;;;;2.92;100.00;98057.38;4959191;28;20434;-72
2021/11/13 08:57:28;;;;;;;5.67;5.27;;;;;;;2.95;100.00;98053.72;4950919;28;20221;-74
2021/11/13 08:59:56;;;;;;;5.00;4.60;;;;;;;2.93;100.00;98059.06;4929386;28;20230;-73
2021/11/13 09:02:26;;;;;;;5.87;5.30;;;;;;;2.91;100.00;98055.72;4961801;28;20734;-71
2021/11/13 09:04:55;;;;;;;5.57;5.03;;;;;;;3.08;100.00;98054.47;4952683;28;20256;-73
2021/11/13 09:07:26;;;;;;;5.37;4.97;;;;;;;2.96;100.00;98056.19;4964092;28;20573;-73
2021/11/13 09:09:54;;;;;;;5.30;4.87;;;;;;;2.85;100.00;98058.78;4952907;28;20214;-74
2021/11/13 09:12:25;;;;;;;5.50;5.07;;;;;;;2.91;100.00;98063.56;4956121;28;20222;-72
2021/11/13 09:14:54;;;;;;;5.57;5.17;;;;;;;2.86;100.00;98060.47;4927441;28;20914;-74
2021/11/13 09:17:23;;;;;;;4.70;4.30;;;;;;;3.09;100.00;98069.22;4956358;28;20226;-72
2021/11/13 09:19:52;;;;;;;5.17;4.77;;;;;;;3.22;100.00;98065.66;4960186;28;20704;-75
2021/11/13 09:22:20;;;;;;;5.13;4.73;;;;;;;3.16;100.00;98057.31;4967388;28;20574;-73
2021/11/13 09:24:50;;;;;;;4.93;4.53;;;;;;;3.25;100.00;98068.91;4941801;28;20214;-74
2021/11/13 09:27:18;;;;;;;4.90;4.50;;;;;;;3.30;100.00;98077.25;4962764;28;20213;-74
2021/11/13 09:29:50;;;;;;;5.67;5.17;;;;;;;3.46;100.00;98074.31;4945958;28;20218;-72
2021/11/13 09:32:18;;;;;;;4.97;4.57;;;;;;;3.37;100.00;98074.16;4934752;28;20221;-72
2021/11/13 09:34:46;;;;;;;5.50;4.90;;;;;;;3.35;100.00;98073.44;4960004;28;20209;-74
2021/11/13 09:37:14;;;;;;;5.43;5.03;;;;;;;3.47;100.00;98078.59;4973301;28;20233;-74
2021/11/13 09:39:42;;;;;;;5.03;4.67;;;;;;;3.52;100.00;98077.41;4955823;28;20206;-75
2021/11/13 09:42:12;;;;;;;5.87;5.27;;;;;;;3.45;100.00;98075.25;4971133;28;20375;-75
2021/11/13 09:44:40;;;;;;;5.30;4.90;;;;;;;3.47;100.00;98073.34;4950837;28;20309;-73
2021/11/13 09:47:09;;;;;;;5.97;5.47;;;;;;;3.42;100.00;98075.50;4927485;28;20256;-72
2021/11/13 09:49:38;;;;;;;5.43;4.93;;;;;;;3.32;100.00;98070.09;4941407;28;20475;-74
2021/11/13 09:52:07;;;;;;;4.93;4.63;;;;;;;3.18;100.00;98067.69;4966433;28;20222;-72
2021/11/13 09:54:35;;;;;;;5.50;5.10;;;;;;;3.13;100.00;98065.41;4962602;28;20659;-73
2021/11/13 09:57:03;;;;;;;4.90;4.50;;;;;;;3.24;100.00;98064.63;4968213;28;20237;-73
2021/11/13 09:59:33;;;;;;;6.50;6.00;;;;;;;3.42;100.00;98067.63;4949527;28;20965;-72
2021/11/13 10:02:06;;;;;;;7.03;5.27;;;;;;;3.45;100.00;98070.00;4927998;28;20642;-73
2021/11/13 10:04:35;;;;;;;4.83;4.43;;;;;;;3.38;100.00;98062.72;4917770;28;20218;-72
2021/11/13 10:07:04;;;;;;;5.80;5.40;;;;;;;3.32;100.00;98051.78;4961327;28;20240;-74
2021/11/13 10:09:37;;;;;;;6.10;5.60;;;;;;;3.56;100.00;98047.38;4964712;28;20261;-72
2021/11/13 10:12:07;;;;;;;4.93;4.53;;;;;;;3.68;100.00;98043.00;4966677;28;20688;-74
2021/11/13 10:14:39;;;;;;;6.00;5.57;;;;;;;3.62;100.00;98039.91;4957844;28;20269;-74
2021/11/13 10:17:19;;;;;;;6.63;5.97;;;;;;;3.54;100.00;98041.44;4963994;28;20257;-71
2021/11/13 10:19:48;;;;;;;6.10;5.60;;;;;;;3.44;100.00;98036.09;4918959;28;20214;-74
2021/11/13 10:22:20;;;;;;;6.70;6.17;;;;;;;3.58;100.00;98040.25;4956535;28;20611;-73
2021/11/13 10:24:53;;;;;;;5.37;4.97;;;;;;;3.65;100.00;98038.84;4957444;28;20352;-72
2021/11/13 10:27:26;;;;;;;6.60;6.00;;;;;;;3.68;100.00;98043.00;4965955;28;20296;-74
2021/11/13 10:29:57;;;;;;;6.40;5.87;;;;;;;3.61;100.00;98034.78;4961444;28;20722;-74
2021/11/13 10:32:26;;;;;;;6.60;6.00;;;;;;;3.56;100.00;98034.28;4969418;28;20222;-73
2021/11/13 10:34:55;;;;;;;7.10;6.37;;;;;;;3.44;100.00;98036.91;4918907;28;20253;-74
2021/11/13 10:37:28;;;;;;;6.67;6.13;;;;;;;3.57;100.00;98017.59;4957304;28;20230;-73
2021/11/13 10:39:58;;;;;;;6.17;5.77;;;;;;;3.57;100.00;98022.84;4955000;28;20292;-75
2021/11/13 10:42:32;;;;;;;6.00;5.53;;;;;;;3.47;100.00;98023.56;4957345;28;20210;-73
2021/11/13 10:45:07;;;;;;;6.80;6.20;;;;;;;3.55;100.00;98022.13;4958016;28;20328;-75
2021/11/13 10:47:37;;;;;;;6.37;5.87;;;;;;;3.55;100.00;98024.75;4957857;28;20206;-72
2021/11/13 10:50:20;;;;;;;6.67;6.17;;;;;;;3.38;100.00;98013.81;4919926;28;20210;-73
2021/11/13 10:52:57;;;;;;;6.87;6.37;;;;;;;3.41;100.00;98010.94;4940498;28;20226;-73
2021/11/13 10:55:25;;;;;;;6.90;6.40;;;;;;;3.40;100.00;98008.44;4967708;28;20834;-72
2021/11/13 10:58:28;;;;;;;7.13;6.57;;;;;;;3.32;100.00;98006.41;4944692;28;20336;-71
2021/11/13 11:00:58;;;;;;;7.43;6.73;;;;;;;3.41;100.00;98008.31;4952851;28;20230;-71
2021/11/13 11:03:30;;;;;;;6.97;6.37;;;;;;;3.42;100.00;98004.75;4948809;28;20214;-73
2021/11/13 11:05:58;;;;;;;6.70;6.20;;;;;;;3.46;100.00;98002.75;4921056;28;20223;-72
2021/11/13 11:08:28;;;;;;;7.23;6.63;;;;;;;3.41;100.00;98000.47;4940703;28;20221;-72
2021/11/13 11:10:56;;;;;;;6.17;5.67;;;;;;;3.53;100.00;98003.06;4962772;28;20241;-70
2021/11/13 11:13:42;;;;;;;6.90;6.37;;;;;;;3.49;100.00;98005.13;4945954;28;20222;-71
2021/11/13 11:16:39;;;;;;;9.93;7.80;;;;;;;3.54;100.00;98000.34;4957936;28;20210;-72
2021/11/13 11:19:08;;;;;;;10.00;9.03;;;;;;;3.52;100.00;97999.63;4934136;28;20210;-69
2021/11/13 11:21:52;;;;;;;9.33;8.63;;;;;;;3.45;100.00;97993.22;4920031;28;20356;-72
2021/11/13 11:24:23;;;;;;;8.87;8.00;;;;;;;3.52;100.00;98002.25;4945004;28;20205;-70
2021/11/13 11:26:58;;;;;;;8.13;7.33;;;;;;;3.66;100.00;98001.19;4955447;28;20210;-73
2021/11/13 11:29:27;;;;;;;7.97;7.27;;;;;;;3.71;100.00;98001.66;4958373;28;20209;-71
2021/11/13 11:32:01;;;;;;;8.60;7.83;;;;;;;3.68;100.00;97999.28;4960868;28;20222;-72
2021/11/13 11:34:32;;;;;;;8.87;8.00;;;;;;;3.70;100.00;97996.53;4940571;28;20218;-75
2021/11/13 11:37:10;;;;;;;10.87;9.87;;;;;;;3.65;100.00;97996.91;4922660;28;20278;-74
2021/11/13 11:39:38;;;;;;;11.43;10.13;;;;;;;3.57;100.00;97992.25;4951979;28;20209;-74
2021/11/13 11:42:08;;;;;;;9.87;8.97;;;;;;;3.70;100.00;97996.53;4957534;28;20594;-74